createdAt,value
2023-04-13T00:00:22.018Z,101526.69
2023-04-13T00:01:24.005Z,101518.50
2023-04-13T00:02:26.241Z,101515.13
2023-04-13T00:03:33.355Z,101516.09
2023-04-13T00:04:35.300Z,101529.25
2023-04-13T00:05:37.936Z,101521.31
2023-04-13T00:06:42.781Z,101524.84
2023-04-13T00:07:44.567Z,101534.59
2023-04-13T00:08:46.749Z,101534.88
2023-04-13T00:09:50.743Z,101521.47
2023-04-13T00:10:53.692Z,101535.00
2023-04-13T00:11:55.480Z,101534.19
2023-04-13T00:12:58.427Z,101533.19
2023-04-13T00:14:00.553Z,101535.88
2023-04-13T00:15:08.612Z,101515.25
2023-04-13T00:16:11.310Z,101531.63
2023-04-13T00:17:13.192Z,101540.38
2023-04-13T00:18:15.137Z,101530.50
2023-04-13T00:19:17.773Z,101536.84
2023-04-13T00:20:19.943Z,101541.38
2023-04-13T00:21:21.737Z,101540.53
2023-04-13T00:22:25.336Z,101544.22
2023-04-13T00:23:27.200Z,101525.97
2023-04-13T00:24:29.027Z,101519.91
2023-04-13T00:25:30.858Z,101532.59
2023-04-13T00:26:32.760Z,101534.47
2023-04-13T00:27:35.339Z,101536.44
2023-04-13T00:28:37.412Z,101522.59
2023-04-13T00:29:39.336Z,101534.47
2023-04-13T00:30:41.795Z,101541.66
2023-04-13T00:31:43.689Z,101538.25
2023-04-13T00:32:46.229Z,101532.19
2023-04-13T00:33:48.017Z,101542.78
2023-04-13T00:34:49.990Z,101542.78
2023-04-13T00:35:52.408Z,101537.41
2023-04-13T00:36:54.258Z,101545.47
2023-04-13T00:37:56.035Z,101546.47
2023-04-13T00:38:58.958Z,101540.94
2023-04-13T00:40:00.755Z,101542.78
2023-04-13T00:41:04.009Z,101537.13
2023-04-13T00:42:09.739Z,101541.09
2023-04-13T00:43:11.814Z,101530.88
2023-04-13T00:44:13.704Z,101541.94
2023-04-13T00:45:18.238Z,101546.47
2023-04-13T00:46:21.003Z,101546.47
2023-04-13T00:47:32.445Z,101546.47
2023-04-13T00:48:35.220Z,101553.53
2023-04-13T00:49:37.105Z,101551.81
2023-04-13T00:50:40.381Z,101548.44
2023-04-13T00:51:44.902Z,101530.34
2023-04-13T00:52:48.328Z,101540.38
2023-04-13T00:53:51.485Z,101546.75
2023-04-13T00:54:56.478Z,101541.38
2023-04-13T00:55:58.537Z,101544.88
2023-04-13T00:57:01.811Z,101541.78
2023-04-13T00:58:03.765Z,101543.34
2023-04-13T00:59:07.649Z,101542.34
2023-04-13T01:00:10.236Z,101540.78
2023-04-13T01:01:12.193Z,101543.34
2023-04-13T01:02:15.653Z,101546.03
2023-04-13T01:03:18.187Z,101540.66
2023-04-13T01:04:20.238Z,101535.00
2023-04-13T01:05:23.160Z,101546.97
2023-04-13T01:06:31.970Z,101543.34
2023-04-13T01:08:26.249Z,101548.72
2023-04-13T01:09:52.619Z,101550.00
2023-04-13T01:11:05.926Z,101557.34
2023-04-13T01:12:18.913Z,101546.47
2023-04-13T01:13:31.570Z,101549.84
2023-04-13T01:14:42.042Z,101557.91
2023-04-13T01:16:20.526Z,101556.63
2023-04-13T01:17:28.733Z,101554.22
2023-04-13T01:18:34.641Z,101558.19
2023-04-13T01:19:57.021Z,101555.34
2023-04-13T01:21:00.780Z,101560.00
2023-04-13T01:22:05.000Z,101554.06
2023-04-13T01:23:36.724Z,101552.22
2023-04-13T01:24:48.456Z,101552.09
2023-04-13T01:25:58.036Z,101558.31
2023-04-13T01:27:11.575Z,101551.25
2023-04-13T01:28:19.324Z,101554.91
2023-04-13T01:29:21.761Z,101558.56
2023-04-13T01:30:27.261Z,101555.19
2023-04-13T01:31:33.233Z,101548.97
2023-04-13T01:32:35.390Z,101552.63
2023-04-13T01:33:41.440Z,101548.41
2023-04-13T01:34:46.164Z,101545.72
2023-04-13T01:35:50.249Z,101543.88
2023-04-13T01:36:53.445Z,101545.72
2023-04-13T01:37:57.251Z,101541.34
2023-04-13T01:39:00.365Z,101548.41
2023-04-13T01:40:12.919Z,101529.75
2023-04-13T01:41:19.226Z,101545.56
2023-04-13T01:42:22.278Z,101549.25
2023-04-13T01:43:26.768Z,101541.34
2023-04-13T01:44:37.485Z,101546.56
2023-04-13T01:45:47.734Z,101550.22
2023-04-13T01:46:55.672Z,101546.72
2023-04-13T01:48:28.251Z,101543.59
2023-04-13T01:49:35.465Z,101546.97
2023-04-13T01:50:42.402Z,101536.81
2023-04-13T01:51:53.185Z,101546.44
2023-04-13T01:53:15.534Z,101542.88
2023-04-13T01:54:20.721Z,101541.91
2023-04-13T01:55:24.045Z,101540.19
2023-04-13T01:56:29.909Z,101551.09
2023-04-13T01:57:37.408Z,101552.19
2023-04-13T01:58:43.319Z,101550.38
2023-04-13T01:59:49.156Z,101540.63
2023-04-13T02:00:55.493Z,101542.44
2023-04-13T02:01:59.400Z,101538.06
2023-04-13T02:03:02.567Z,101543.44
2023-04-13T02:04:05.385Z,101539.94
2023-04-13T02:05:09.677Z,101532.56
2023-04-13T02:06:11.975Z,101552.47
2023-04-13T02:07:17.607Z,101548.09
2023-04-13T02:08:22.955Z,101549.78
2023-04-13T02:09:25.233Z,101547.25
2023-04-13T02:10:28.892Z,101544.59
2023-04-13T02:11:33.515Z,101541.03
2023-04-13T02:12:37.861Z,101547.25
2023-04-13T02:13:41.236Z,101541.03
2023-04-13T02:14:45.176Z,101554.44
2023-04-13T02:15:47.207Z,101537.09
2023-04-13T02:16:49.173Z,101552.75
2023-04-13T02:17:51.056Z,101550.06
2023-04-13T02:18:52.984Z,101548.38
2023-04-13T02:19:59.195Z,101525.50
2023-04-13T02:21:12.151Z,101541.19
2023-04-13T02:22:14.382Z,101544.44
2023-04-13T02:23:16.366Z,101541.91
2023-04-13T02:24:19.139Z,101534.84
2023-04-13T02:25:20.976Z,101539.34
2023-04-13T02:26:23.052Z,101534.13
2023-04-13T02:27:24.983Z,101538.50
2023-04-13T02:28:27.947Z,101536.94
2023-04-13T02:29:30.157Z,101531.44
2023-04-13T02:30:31.984Z,101535.13
2023-04-13T02:31:33.898Z,101548.53
2023-04-13T02:32:40.802Z,101544.97
2023-04-13T02:33:43.696Z,101542.19
2023-04-13T02:34:45.607Z,101540.31
2023-04-13T02:35:48.938Z,101537.81
2023-04-13T02:36:51.680Z,101534.97
2023-04-13T02:37:53.541Z,101525.78
2023-04-13T02:38:55.589Z,101535.13
2023-04-13T02:40:04.352Z,101543.88
2023-04-13T02:41:06.698Z,101539.91
2023-04-13T02:42:10.324Z,101533.81
2023-04-13T02:43:12.472Z,101540.47
2023-04-13T02:44:16.266Z,101548.38
2023-04-13T02:45:29.430Z,101549.09
2023-04-13T02:46:33.055Z,101540.31
2023-04-13T02:47:46.309Z,101540.47
2023-04-13T02:48:49.309Z,101539.34
2023-04-13T02:49:51.609Z,101538.63
2023-04-13T02:51:00.973Z,101547.38
2023-04-13T02:52:06.330Z,101534.09
2023-04-13T02:53:34.282Z,101551.38
2023-04-13T02:54:40.050Z,101549.78
2023-04-13T02:55:42.061Z,101554.59
2023-04-13T02:56:47.242Z,101559.09
2023-04-13T02:57:49.951Z,101558.38
2023-04-13T02:58:52.336Z,101564.75
2023-04-13T02:59:54.792Z,101557.09
2023-04-13T03:00:59.261Z,101557.09
2023-04-13T03:02:01.588Z,101568.28
2023-04-13T03:03:07.051Z,101531.53
2023-04-13T03:04:15.029Z,101565.44
2023-04-13T03:05:17.570Z,101552.59
2023-04-13T03:06:19.909Z,101555.00
2023-04-13T03:07:26.002Z,101561.06
2023-04-13T03:08:28.604Z,101550.91
2023-04-13T03:09:41.028Z,101539.91
2023-04-13T03:10:44.893Z,101551.22
2023-04-13T03:11:47.107Z,101561.06
2023-04-13T03:12:56.732Z,101538.47
2023-04-13T03:14:01.553Z,101564.47
2023-04-13T03:15:05.116Z,101552.88
2023-04-13T03:16:07.509Z,101555.72
2023-04-13T03:17:11.544Z,101556.69
2023-04-13T03:18:16.351Z,101554.88
2023-04-13T03:19:18.367Z,101562.75
2023-04-13T03:20:23.769Z,101565.34
2023-04-13T03:21:34.445Z,101571.53
2023-04-13T03:22:45.313Z,101564.47
2023-04-13T03:23:47.284Z,101559.94
2023-04-13T03:24:51.728Z,101572.50
2023-04-13T03:26:01.053Z,101568.84
2023-04-13T03:27:02.894Z,101574.34
2023-04-13T03:28:13.322Z,101576.88
2023-04-13T03:29:18.549Z,101576.06
2023-04-13T03:30:21.722Z,101562.75
2023-04-13T03:31:30.583Z,101564.47
2023-04-13T03:32:32.615Z,101549.19
2023-04-13T03:33:35.885Z,101571.81
2023-04-13T03:34:43.964Z,101562.47
2023-04-13T03:35:48.047Z,101569.97
2023-04-13T03:37:00.749Z,101569.97
2023-04-13T03:38:02.652Z,101575.47
2023-04-13T03:39:13.588Z,101573.50
2023-04-13T03:40:15.506Z,101576.34
2023-04-13T03:41:24.741Z,101571.81
2023-04-13T03:42:26.667Z,101559.06
2023-04-13T03:43:32.734Z,101587.06
2023-04-13T03:44:39.379Z,101580.00
2023-04-13T03:45:41.577Z,101589.88
2023-04-13T03:46:46.333Z,101590.72
2023-04-13T03:47:58.380Z,101589.75
2023-04-13T03:49:01.637Z,101594.25
2023-04-13T03:50:04.094Z,101589.03
2023-04-13T03:51:09.520Z,101589.88
2023-04-13T03:52:22.178Z,101588.88
2023-04-13T03:53:30.207Z,101594.94
2023-04-13T03:54:32.122Z,101597.91
2023-04-13T03:55:35.099Z,101587.28
2023-04-13T03:56:41.378Z,101601.56
2023-04-13T03:57:44.227Z,101613.28
2023-04-13T03:58:51.421Z,101606.09
2023-04-13T03:59:57.610Z,101613.28
2023-04-13T04:01:15.596Z,101613.59
2023-04-13T04:02:22.018Z,101612.03
2023-04-13T04:03:25.707Z,101611.31
2023-04-13T04:04:38.215Z,101609.34
2023-04-13T04:05:42.308Z,101617.53
2023-04-13T04:06:44.355Z,101614.16
2023-04-13T04:07:48.679Z,101593.63
2023-04-13T04:08:51.498Z,101611.59
2023-04-13T04:10:13.690Z,101609.50
2023-04-13T04:11:17.095Z,101615.84
2023-04-13T04:12:19.082Z,101608.78
2023-04-13T04:13:21.820Z,101615.25
2023-04-13T04:14:27.736Z,101624.00
2023-04-13T04:15:37.337Z,101617.53
2023-04-13T04:16:40.790Z,101610.72
2023-04-13T04:17:46.100Z,101606.22
2023-04-13T04:18:47.870Z,101607.22
2023-04-13T04:19:52.479Z,101595.34
2023-04-13T04:20:57.542Z,101604.53
2023-04-13T04:22:07.247Z,101597.47
2023-04-13T04:23:15.249Z,101582.75
2023-04-13T04:24:38.666Z,101587.78
2023-04-13T04:25:41.087Z,101592.94
2023-04-13T04:26:42.913Z,101603.44
2023-04-13T04:27:47.017Z,101603.53
2023-04-13T04:28:50.688Z,101611.59
2023-04-13T04:29:59.379Z,101616.94
2023-04-13T04:31:12.026Z,101614.16
2023-04-13T04:32:18.618Z,101616.94
2023-04-13T04:33:24.181Z,101620.47
2023-04-13T04:34:28.393Z,101588.09
2023-04-13T04:35:34.292Z,101612.84
2023-04-13T04:36:41.805Z,101620.63
2023-04-13T04:37:45.156Z,101631.19
2023-04-13T04:38:51.755Z,101619.63
2023-04-13T04:39:54.313Z,101631.34
2023-04-13T04:40:57.837Z,101625.97
2023-04-13T04:42:03.094Z,101628.78
2023-04-13T04:43:06.201Z,101626.97
2023-04-13T04:44:16.818Z,101621.59
2023-04-13T04:45:20.848Z,101631.34
2023-04-13T04:46:27.461Z,101635.72
2023-04-13T04:47:37.922Z,101628.66
2023-04-13T04:48:47.633Z,101632.06
2023-04-13T04:49:50.730Z,101633.88
2023-04-13T04:50:54.332Z,101637.69
2023-04-13T04:51:57.530Z,101623.97
2023-04-13T04:52:59.812Z,101633.31
2023-04-13T04:54:03.735Z,101630.63
2023-04-13T04:55:06.528Z,101627.09
2023-04-13T04:56:10.049Z,101624.69
2023-04-13T04:57:18.409Z,101636.00
2023-04-13T04:58:20.664Z,101636.84
2023-04-13T04:59:26.669Z,101638.53
2023-04-13T05:00:32.604Z,101627.78
2023-04-13T05:01:43.321Z,101633.03
2023-04-13T05:02:50.119Z,101633.03
2023-04-13T05:03:54.540Z,101629.78
2023-04-13T05:05:07.079Z,101628.94
2023-04-13T05:06:09.513Z,101634.16
2023-04-13T05:07:11.573Z,101641.22
2023-04-13T05:08:15.233Z,101644.03
2023-04-13T05:09:22.389Z,101636.13
2023-04-13T05:10:29.724Z,101644.59
2023-04-13T05:11:33.701Z,101637.69
2023-04-13T05:12:38.259Z,101641.81
2023-04-13T05:13:40.511Z,101639.84
2023-04-13T05:14:51.894Z,101636.75
2023-04-13T05:15:54.163Z,101632.22
2023-04-13T05:16:56.048Z,101619.25
2023-04-13T05:18:06.111Z,101642.41
2023-04-13T05:19:09.601Z,101629.72
2023-04-13T05:20:37.894Z,101634.56
2023-04-13T05:21:41.258Z,101627.22
2023-04-13T05:22:43.354Z,101620.16
2023-04-13T05:23:45.144Z,101630.34
2023-04-13T05:24:47.327Z,101633.72
2023-04-13T05:25:52.804Z,101646.00
2023-04-13T05:26:57.315Z,101644.91
2023-04-13T05:27:59.167Z,101648.03
2023-04-13T05:29:04.641Z,101651.41
2023-04-13T05:30:10.353Z,101619.59
2023-04-13T05:31:15.855Z,101630.66
2023-04-13T05:32:19.964Z,101646.78
2023-04-13T05:33:24.698Z,101648.34
2023-04-13T05:34:31.041Z,101669.41
2023-04-13T05:35:48.612Z,101677.94
2023-04-13T05:36:50.977Z,101679.50
2023-04-13T05:37:53.554Z,101673.97
2023-04-13T05:39:02.650Z,101662.13
2023-04-13T05:40:10.692Z,101667.22
2023-04-13T05:41:13.129Z,101663.25
2023-04-13T05:42:15.763Z,101664.97
2023-04-13T05:43:23.696Z,101661.13
2023-04-13T05:44:27.280Z,101653.66
2023-04-13T05:45:29.961Z,101660.72
2023-04-13T05:46:44.242Z,101658.47
2023-04-13T05:47:46.163Z,101657.47
2023-04-13T05:48:49.886Z,101658.34
2023-04-13T05:49:52.725Z,101656.34
2023-04-13T05:51:00.027Z,101648.69
2023-04-13T05:52:07.934Z,101672.03
2023-04-13T05:53:18.412Z,101668.94
2023-04-13T05:54:23.441Z,101675.13
2023-04-13T05:55:27.685Z,101675.59
2023-04-13T05:56:34.956Z,101689.31
2023-04-13T05:57:36.765Z,101702.75
2023-04-13T05:58:42.744Z,101704.28
2023-04-13T05:59:53.701Z,101689.84
2023-04-13T06:01:15.044Z,101699.22
2023-04-13T06:02:17.156Z,101702.31
2023-04-13T06:03:21.007Z,101694.13
2023-04-13T06:04:23.277Z,101701.47
2023-04-13T06:05:25.422Z,101717.44
2023-04-13T06:06:27.455Z,101714.75
2023-04-13T06:07:29.495Z,101716.59
2023-04-13T06:08:34.678Z,101718.31
2023-04-13T06:09:36.772Z,101720.00
2023-04-13T06:10:41.451Z,101709.81
2023-04-13T06:11:44.692Z,101721.53
2023-04-13T06:12:48.678Z,101715.63
2023-04-13T06:13:51.476Z,101724.38
2023-04-13T06:14:54.389Z,101722.41
2023-04-13T06:15:57.505Z,101717.59
2023-04-13T06:16:59.340Z,101712.34
2023-04-13T06:18:01.798Z,101732.16
2023-04-13T06:19:04.044Z,101734.84
2023-04-13T06:20:08.912Z,101734.84
2023-04-13T06:21:10.772Z,101739.22
2023-04-13T06:22:12.607Z,101716.03
2023-04-13T06:23:15.865Z,101717.88
2023-04-13T06:24:18.258Z,101740.06
2023-04-13T06:25:21.071Z,101736.53
2023-04-13T06:26:25.098Z,101736.53
2023-04-13T06:27:33.655Z,101748.00
2023-04-13T06:28:36.797Z,101744.44
2023-04-13T06:29:38.865Z,101749.81
2023-04-13T06:30:44.442Z,101751.53
2023-04-13T06:31:49.270Z,101741.63
2023-04-13T06:32:53.474Z,101743.91
2023-04-13T06:33:57.714Z,101739.50
2023-04-13T06:35:07.428Z,101743.47
2023-04-13T06:36:16.348Z,101749.53
2023-04-13T06:37:19.424Z,101756.06
2023-04-13T06:38:27.464Z,101754.91
2023-04-13T06:39:37.938Z,101752.22
2023-04-13T06:40:42.096Z,101763.13
2023-04-13T06:41:44.603Z,101763.13
2023-04-13T06:42:51.326Z,101772.19
2023-04-13T06:44:15.069Z,101765.38
2023-04-13T06:45:42.866Z,101766.97
2023-04-13T06:46:52.835Z,101767.94
2023-04-13T06:47:56.266Z,101765.53
2023-04-13T06:48:59.812Z,101759.47
2023-04-13T06:50:05.259Z,101758.75
2023-04-13T06:51:07.500Z,101768.50
2023-04-13T06:52:10.820Z,101772.19
2023-04-13T06:53:12.649Z,101770.50
2023-04-13T06:54:16.086Z,101765.94
2023-04-13T06:55:22.305Z,101762.28
2023-04-13T06:56:24.351Z,101766.94
2023-04-13T06:57:26.471Z,101767.09
2023-04-13T06:58:29.222Z,101761.56
2023-04-13T06:59:31.113Z,101765.13
2023-04-13T07:00:32.986Z,101771.47
2023-04-13T07:01:36.395Z,101770.50
2023-04-13T07:02:38.934Z,101764.25
2023-04-13T07:03:41.315Z,101773.19
2023-04-13T07:04:43.381Z,101765.13
2023-04-13T07:05:45.637Z,101772.31
2023-04-13T07:06:51.834Z,101774.88
2023-04-13T07:07:53.785Z,101752.38
2023-04-13T07:08:56.255Z,101778.56
2023-04-13T07:10:00.288Z,101773.19
2023-04-13T07:11:02.796Z,101772.75
2023-04-13T07:12:14.383Z,101784.47
2023-04-13T07:13:16.207Z,101785.47
2023-04-13T07:14:18.030Z,101789.28
2023-04-13T07:15:20.540Z,101791.00
2023-04-13T07:16:22.400Z,101780.25
2023-04-13T07:17:24.366Z,101784.63
2023-04-13T07:18:26.357Z,101777.56
2023-04-13T07:19:33.465Z,101775.28
2023-04-13T07:20:36.504Z,101778.28
2023-04-13T07:21:38.506Z,101773.19
2023-04-13T07:22:40.737Z,101780.97
2023-04-13T07:23:43.840Z,101781.78
2023-04-13T07:24:45.737Z,101782.94
2023-04-13T07:25:51.493Z,101776.41
2023-04-13T07:26:58.535Z,101774.59
2023-04-13T07:28:00.708Z,101784.47
2023-04-13T07:29:03.041Z,101779.09
2023-04-13T07:30:10.706Z,101768.78
2023-04-13T07:31:17.399Z,101762.84
2023-04-13T07:32:26.199Z,101783.38
2023-04-13T07:33:33.078Z,101776.13
2023-04-13T07:34:35.961Z,101789.56
2023-04-13T07:35:38.569Z,101776.28
2023-04-13T07:36:42.456Z,101749.53
2023-04-13T07:37:51.410Z,101791.44
2023-04-13T07:38:55.377Z,101788.75
2023-04-13T07:39:57.493Z,101787.75
2023-04-13T07:41:00.868Z,101796.09
2023-04-13T07:42:06.402Z,101792.25
2023-04-13T07:43:25.667Z,101791.16
2023-04-13T07:44:30.948Z,101786.06
2023-04-13T07:45:33.097Z,101795.81
2023-04-13T07:46:36.259Z,101806.56
2023-04-13T07:47:38.241Z,101795.66
2023-04-13T07:48:44.629Z,101821.69
2023-04-13T07:49:56.948Z,101820.59
2023-04-13T07:50:59.798Z,101812.66
2023-04-13T07:52:02.165Z,101811.50
2023-04-13T07:53:08.084Z,101822.56
2023-04-13T07:54:09.966Z,101818.31
2023-04-13T07:55:12.168Z,101827.19
2023-04-13T07:56:20.044Z,101813.63
2023-04-13T07:57:24.011Z,101827.06
2023-04-13T07:58:31.444Z,101817.19
2023-04-13T07:59:33.321Z,101803.84
2023-04-13T08:00:35.728Z,101810.94
2023-04-13T08:01:39.633Z,101816.31
2023-04-13T08:02:43.337Z,101825.25
2023-04-13T08:03:49.633Z,101833.16
2023-04-13T08:04:55.918Z,101836.72
2023-04-13T08:06:06.968Z,101836.72
2023-04-13T08:07:08.732Z,101835.72
2023-04-13T08:08:11.216Z,101845.59
2023-04-13T08:09:13.100Z,101848.28
2023-04-13T08:10:15.137Z,101845.59
2023-04-13T08:11:17.066Z,101846.59
2023-04-13T08:12:20.958Z,101858.22
2023-04-13T08:13:24.001Z,101864.41
2023-04-13T08:14:26.597Z,101862.72
2023-04-13T08:15:29.103Z,101860.91
2023-04-13T08:16:34.845Z,101869.78
2023-04-13T08:17:39.974Z,101873.19
2023-04-13T08:18:42.481Z,101870.50
2023-04-13T08:19:46.420Z,101867.09
2023-04-13T08:20:50.428Z,101876.88
2023-04-13T08:21:54.138Z,101875.88
2023-04-13T08:22:55.930Z,101872.22
2023-04-13T08:23:57.753Z,101871.50
2023-04-13T08:24:59.623Z,101864.09
2023-04-13T08:26:03.724Z,101861.31
2023-04-13T08:27:07.639Z,101873.19
2023-04-13T08:28:09.771Z,101864.69
2023-04-13T08:29:12.000Z,101878.56
2023-04-13T08:30:14.603Z,101878.56
2023-04-13T08:31:25.623Z,101872.91
2023-04-13T08:32:35.137Z,101880.00
2023-04-13T08:33:37.439Z,101881.97
2023-04-13T08:34:39.245Z,101879.28
2023-04-13T08:35:41.223Z,101874.91
2023-04-13T08:36:46.305Z,101881.97
2023-04-13T08:37:48.875Z,101874.91
2023-04-13T08:38:51.074Z,101870.38
2023-04-13T08:39:59.580Z,101870.50
2023-04-13T08:41:04.827Z,101870.38
2023-04-13T08:42:10.113Z,101871.22
2023-04-13T08:43:13.519Z,101879.28
2023-04-13T08:44:16.219Z,101876.03
2023-04-13T08:45:21.401Z,101881.13
2023-04-13T08:46:24.617Z,101882.97
2023-04-13T08:47:30.041Z,101883.81
2023-04-13T08:48:46.118Z,101891.03
2023-04-13T08:49:56.746Z,101882.56
2023-04-13T08:51:15.008Z,101868.38
2023-04-13T08:52:17.714Z,101889.75
2023-04-13T08:53:23.341Z,101886.34
2023-04-13T08:54:26.065Z,101887.34
2023-04-13T08:55:29.483Z,101880.56
2023-04-13T08:56:45.366Z,101898.09
2023-04-13T08:57:56.365Z,101892.44
2023-04-13T08:59:09.198Z,101886.25
2023-04-13T09:00:15.849Z,101880.56
2023-04-13T09:01:18.952Z,101897.81
2023-04-13T09:02:24.479Z,101882.25
2023-04-13T09:03:34.169Z,101887.63
2023-04-13T09:04:40.680Z,101881.41
2023-04-13T09:05:42.850Z,101889.91
2023-04-13T09:06:47.885Z,101896.41
2023-04-13T09:07:53.901Z,101882.91
2023-04-13T09:08:58.339Z,101908.84
2023-04-13T09:10:01.209Z,101912.53
2023-04-13T09:11:03.845Z,101910.81
2023-04-13T09:12:05.946Z,101909.13
2023-04-13T09:13:07.849Z,101915.50
2023-04-13T09:14:10.462Z,101906.59
2023-04-13T09:15:17.139Z,101901.72
2023-04-13T09:16:43.620Z,101912.25
2023-04-13T09:18:10.502Z,101917.34
2023-04-13T09:19:33.331Z,101918.22
2023-04-13T09:20:38.411Z,101911.97
2023-04-13T09:21:42.326Z,101908.84
2023-04-13T09:22:44.931Z,101915.09
2023-04-13T09:23:58.032Z,101922.28
2023-04-13T09:24:59.882Z,101914.22
2023-04-13T09:26:08.782Z,101929.19
2023-04-13T09:27:24.269Z,101892.94
2023-04-13T09:28:26.665Z,101938.28
2023-04-13T09:29:28.592Z,101928.66
2023-04-13T09:30:30.482Z,101927.81
2023-04-13T09:31:38.719Z,101918.44
2023-04-13T09:32:40.933Z,101920.75
2023-04-13T09:33:46.772Z,101907.00
2023-04-13T09:35:05.573Z,101916.19
2023-04-13T09:36:11.938Z,101913.41
2023-04-13T09:37:14.188Z,101908.81
2023-04-13T09:38:16.499Z,101914.78
2023-04-13T09:39:26.165Z,101917.47
2023-04-13T09:40:28.089Z,101923.56
2023-04-13T09:41:40.666Z,101920.16
2023-04-13T09:42:59.203Z,101913.19
2023-04-13T09:44:22.450Z,101929.63
2023-04-13T09:45:24.706Z,101931.22
2023-04-13T09:46:27.011Z,101930.91
2023-04-13T09:47:37.125Z,101929.19
2023-04-13T09:48:39.012Z,101923.56
2023-04-13T09:49:43.247Z,101926.50
2023-04-13T09:50:45.174Z,101922.84
2023-04-13T09:51:47.118Z,101915.88
2023-04-13T09:53:10.785Z,101904.84
2023-04-13T09:54:12.836Z,101913.94
2023-04-13T09:55:19.321Z,101920.31
2023-04-13T09:56:21.338Z,101932.59
2023-04-13T09:57:30.832Z,101936.44
2023-04-13T09:58:32.707Z,101942.53
2023-04-13T09:59:35.459Z,101939.34
2023-04-13T10:00:39.692Z,101937.38
2023-04-13T10:01:41.822Z,101944.50
2023-04-13T10:02:44.508Z,101941.94
2023-04-13T10:03:47.076Z,101913.31
2023-04-13T10:04:49.331Z,101937.38
2023-04-13T10:05:59.681Z,101947.31
2023-04-13T10:07:02.423Z,101940.81
2023-04-13T10:08:05.690Z,101936.56
2023-04-13T10:09:08.051Z,101940.94
2023-04-13T10:10:10.368Z,101934.84
2023-04-13T10:11:14.706Z,101945.59
2023-04-13T10:12:17.537Z,101942.31
2023-04-13T10:13:26.641Z,101939.34
2023-04-13T10:14:34.671Z,101947.31
2023-04-13T10:15:55.996Z,101950.69
2023-04-13T10:17:33.403Z,101964.59
2023-04-13T10:18:47.413Z,101949.44
2023-04-13T10:19:51.662Z,101952.13
2023-04-13T10:20:55.357Z,101960.34
2023-04-13T10:21:58.632Z,101958.06
2023-04-13T10:23:01.497Z,101961.44
2023-04-13T10:24:11.236Z,101958.44
2023-04-13T10:25:25.727Z,101962.44
2023-04-13T10:26:32.429Z,101963.16
2023-04-13T10:27:36.561Z,101951.56
2023-04-13T10:28:46.347Z,101976.75
2023-04-13T10:29:49.935Z,101973.06
2023-04-13T10:30:52.423Z,101982.13
2023-04-13T10:31:57.324Z,101976.00
2023-04-13T10:33:05.570Z,101973.31
2023-04-13T10:34:09.778Z,101975.00
2023-04-13T10:35:13.242Z,101972.31
2023-04-13T10:36:15.012Z,101991.13
2023-04-13T10:37:23.240Z,101965.78
2023-04-13T10:38:26.058Z,101980.66
2023-04-13T10:39:30.342Z,101988.59
2023-04-13T10:40:48.390Z,101981.25
2023-04-13T10:42:09.376Z,101992.72
2023-04-13T10:43:11.629Z,101991.72
2023-04-13T10:44:13.523Z,101988.44
2023-04-13T10:45:26.653Z,101993.81
2023-04-13T10:46:29.299Z,101997.38
2023-04-13T10:47:37.108Z,102000.19
2023-04-13T10:48:41.464Z,102005.56
2023-04-13T10:49:44.725Z,101995.22
2023-04-13T10:50:57.274Z,102005.72
2023-04-13T10:51:59.139Z,102010.94
2023-04-13T10:53:10.584Z,102010.09
2023-04-13T10:54:14.450Z,101999.88
2023-04-13T10:55:16.726Z,102015.47
2023-04-13T10:56:19.310Z,101998.63
2023-04-13T10:57:21.624Z,102004.00
2023-04-13T10:58:23.936Z,102013.06
2023-04-13T10:59:56.263Z,102010.22
2023-04-13T11:00:59.612Z,102003.63
2023-04-13T11:02:06.508Z,101994.25
2023-04-13T11:03:09.529Z,102001.16
2023-04-13T11:04:15.147Z,101995.22
2023-04-13T11:05:23.094Z,102008.66
2023-04-13T11:06:25.187Z,101997.91
2023-04-13T11:07:27.163Z,102017.72
2023-04-13T11:08:30.552Z,102014.59
2023-04-13T11:09:32.515Z,102019.69
2023-04-13T11:10:34.440Z,102024.06
2023-04-13T11:11:37.370Z,102021.22
2023-04-13T11:12:39.430Z,102034.94
2023-04-13T11:13:46.150Z,102027.88
2023-04-13T11:14:48.575Z,102030.44
2023-04-13T11:15:50.675Z,102020.22
2023-04-13T11:16:58.545Z,102026.75
2023-04-13T11:18:02.467Z,102031.41
2023-04-13T11:19:05.599Z,102024.19
2023-04-13T11:20:11.217Z,102027.75
2023-04-13T11:21:17.433Z,102024.63
2023-04-13T11:22:23.765Z,102033.13
2023-04-13T11:23:25.698Z,102026.44
2023-04-13T11:24:33.987Z,102039.47
2023-04-13T11:25:35.824Z,102024.47
2023-04-13T11:26:38.719Z,102035.81
2023-04-13T11:27:40.864Z,102042.03
2023-04-13T11:28:46.193Z,102028.13
2023-04-13T11:30:09.837Z,102029.44
2023-04-13T11:31:12.877Z,102021.38
2023-04-13T11:32:21.026Z,102028.47
2023-04-13T11:33:31.299Z,102022.09
2023-04-13T11:34:33.152Z,102017.72
2023-04-13T11:35:49.784Z,102014.31
2023-04-13T11:37:02.911Z,102016.56
2023-04-13T11:38:04.812Z,102014.75
2023-04-13T11:39:10.993Z,101995.06
2023-04-13T11:40:13.015Z,102007.81
2023-04-13T11:41:16.929Z,101993.34
2023-04-13T11:42:19.408Z,102009.78
2023-04-13T11:43:21.473Z,102009.78
2023-04-13T11:44:24.463Z,102009.94
2023-04-13T11:45:29.031Z,102010.91
2023-04-13T11:46:30.998Z,102006.25
2023-04-13T11:47:33.147Z,102006.38
2023-04-13T11:48:35.126Z,101976.31
2023-04-13T11:49:37.327Z,102004.56
2023-04-13T11:50:41.311Z,101993.88
2023-04-13T11:51:43.755Z,101995.59
2023-04-13T11:52:47.165Z,102013.59
2023-04-13T11:53:51.373Z,101996.16
2023-04-13T11:54:54.169Z,102009.22
2023-04-13T11:55:56.084Z,102011.75
2023-04-13T11:56:58.358Z,102007.78
2023-04-13T11:58:15.529Z,102014.59
2023-04-13T11:59:23.217Z,102013.31
2023-04-13T12:00:27.286Z,102005.81
2023-04-13T12:01:34.141Z,102023.09
2023-04-13T12:02:54.680Z,102025.06
2023-04-13T12:04:14.894Z,102022.81
2023-04-13T12:05:30.360Z,102013.63
2023-04-13T12:06:34.166Z,102020.84
2023-04-13T12:07:40.907Z,102021.13
2023-04-13T12:08:43.830Z,102017.72
2023-04-13T12:11:30.258Z,102031.16
2023-04-13T12:13:52.042Z,102027.94
2023-04-13T12:16:54.866Z,102008.66
2023-04-13T12:17:58.015Z,102020.31
2023-04-13T12:19:12.804Z,102026.69
2023-04-13T12:20:16.616Z,102026.81
2023-04-13T12:21:20.778Z,102037.81
2023-04-13T12:22:23.923Z,102028.19
2023-04-13T12:23:27.967Z,102015.28
2023-04-13T12:24:39.193Z,102033.56
2023-04-13T12:25:42.165Z,102018.56
2023-04-13T12:27:53.508Z,102033.56
2023-04-13T12:28:59.270Z,102033.56
2023-04-13T12:30:04.329Z,102037.09
2023-04-13T12:31:09.937Z,102028.31
2023-04-13T12:32:17.085Z,102027.22
2023-04-13T12:33:19.915Z,102035.28
2023-04-13T12:34:23.070Z,102025.50
2023-04-13T12:35:25.031Z,102032.72